Ryofu Maru — JGQH — position and weather

sailwx.info

Track history (hours):
 
Tides and Currents Weather Stations Pressure Air Temp Water Temp Dewpoint Dewpoint Depression Visibility Wind Speed Wind Dir Waves Ship Positions

Oceanographic research ship Ryofu Maru (Japan)

Detailed information on ship capabilities available from University of Delaware's Ocean Information Center.

Last reported at 2019-Oct-07 02:37 UTC. Time now 2019-Oct-14 11:38 UTC.
Position N 34°38' E 135°28'.

Length 82 m; beam 13 m; draft 4.7 m.

Type: Other ship. MMSI: 431757000.

Date/timePositionNaut miles runAvg speedWind from/ knotsBaromVisibWave heightAir tempDewpointWater temp
2019-Oct-07 02:37N 34°38' E 135°28'  
2019-Oct-04 00:20N 34°38' E 135°28'0 0.8
2019-Oct-04 00:00N 34°38' E 135°28'3 6.7
2019-Oct-03 23:30N 34°39' E 135°24'612.2
2019-Oct-03 23:00N 34°35' E 135°19'714.5
2019-Oct-03 22:30N 34°29' E 135°13'713.8
2019-Oct-03 22:00N 34°24' E 135°07'713.9
2019-Oct-03 21:30N 34°19' E 135°01'611.8
2019-Oct-03 21:00N 34°14' E 134°59'713.2
2019-Oct-03 20:31N 34°07' E 134°60'1013.8
2019-Oct-03 19:46N 33°57' E 134°59'242 6.7
2019-Oct-02 07:41N 35°04' E 139°41'315.0
2019-Oct-02 07:29N 35°06' E 139°44'714.3
2019-Oct-02 07:00N 35°13' E 139°46'611.9
2019-Oct-02 06:30N 35°18' E 139°44'612.6
2019-Oct-02 06:01N 35°24' E 139°43'714.7
2019-Oct-02 05:31N 35°29' E 139°50'611.2
2019-Oct-02 05:00N 35°35' E 139°48'4 0.2
2019-Oct-01 08:29N 35°38' E 139°47'  
Track history (hours):
 
Tides and Currents Weather Stations Pressure Air Temp Water Temp Dewpoint Dewpoint Depression Visibility Wind Speed Wind Dir Waves Ship Positions

Oceanographic research ship Ryofu Maru (Japan)

Detailed information on ship capabilities available from University of Delaware's Ocean Information Center.

Last reported at 2019-Oct-07 02:37 UTC. Time now 2019-Oct-14 11:38 UTC.
Position N 34°38' E 135°28'.

Length 82 m; beam 13 m; draft 4.7 m.

Type: Other ship. MMSI: 431757000.

Date/timePositionNaut miles runAvg speedWind from/ knotsBaromVisibWave heightAir tempDewpointWater temp
2019-Oct-07 02:37N 34°38' E 135°28'  
2019-Oct-04 00:20N 34°38' E 135°28'0 0.8
2019-Oct-04 00:00N 34°38' E 135°28'3 6.7
2019-Oct-03 23:30N 34°39' E 135°24'612.2
2019-Oct-03 23:00N 34°35' E 135°19'714.5
2019-Oct-03 22:30N 34°29' E 135°13'713.8
2019-Oct-03 22:00N 34°24' E 135°07'713.9
2019-Oct-03 21:30N 34°19' E 135°01'611.8
2019-Oct-03 21:00N 34°14' E 134°59'713.2
2019-Oct-03 20:31N 34°07' E 134°60'1013.8
2019-Oct-03 19:46N 33°57' E 134°59'242 6.7
2019-Oct-02 07:41N 35°04' E 139°41'315.0
2019-Oct-02 07:29N 35°06' E 139°44'714.3
2019-Oct-02 07:00N 35°13' E 139°46'611.9
2019-Oct-02 06:30N 35°18' E 139°44'612.6
2019-Oct-02 06:01N 35°24' E 139°43'714.7
2019-Oct-02 05:31N 35°29' E 139°50'611.2
2019-Oct-02 05:00N 35°35' E 139°48'4 0.2
2019-Oct-01 08:29N 35°38' E 139°47'  

Dump ship's entire track history